Time;durP1;ratioP1;P1;durP2;ratioP2;P2;SDS_P1;SDS_P2;PMS_P1;PMS_P2;Temp;Humidity;BMP_temperature;BMP_pressure;BME280_temperature;BME280_humidity;BME280_pressure;Samples;Min_cycle;Max_cycle;Signal;HPM_P1;HPM_P2
2021/12/02 00:00:15;;;;;;;0.20;0.20;;;;;;;5.06;89.30;98060.66;5002338;28;20482;-66
2021/12/02 00:02:41;;;;;;;0.20;0.20;;;;;;;5.07;89.11;98070.19;5012769;28;20049;-65
2021/12/02 00:05:07;;;;;;;0.10;0.10;;;;;;;5.06;88.26;98084.66;5012342;28;20034;-65
2021/12/02 00:07:32;;;;;;;0.10;0.10;;;;;;;5.04;88.60;98076.25;5013480;28;20049;-65
2021/12/02 00:09:58;;;;;;;0.25;0.25;;;;;;;5.02;88.06;98095.31;5002506;28;20030;-65
2021/12/02 00:12:24;;;;;;;0.30;0.30;;;;;;;5.00;87.44;98097.59;5010682;28;20044;-65
2021/12/02 00:14:51;;;;;;;2.17;0.30;;;;;;;4.93;86.37;98100.28;5013618;28;20501;-65
2021/12/02 00:17:28;;;;;;;2.05;0.30;;;;;;;4.94;85.97;98103.69;4996438;28;20033;-65
2021/12/02 00:23:27;;;;;;;0.30;0.28;;;;;;;4.85;84.77;98125.41;4993347;28;20419;-65
2021/12/02 00:25:59;;;;;;;0.43;0.35;;;;;;;4.90;85.00;98134.91;4996876;28;20044;-65
2021/12/02 00:28:26;;;;;;;0.10;0.10;;;;;;;4.88;84.91;98129.97;5013108;28;20045;-67
2021/12/02 00:30:57;;;;;;;0.20;0.20;;;;;;;4.87;83.86;98131.13;4994317;28;20613;-66
2021/12/02 00:33:25;;;;;;;0.10;0.10;;;;;;;4.86;84.29;98134.91;5010588;28;20128;-66
2021/12/02 00:35:51;;;;;;;0.17;0.17;;;;;;;4.82;84.39;98147.47;4996299;28;20034;-65
2021/12/02 00:38:26;;;;;;;0.32;0.30;;;;;;;4.85;83.56;98140.63;4994070;28;20041;-65
2021/12/02 00:40:59;;;;;;;6.78;0.20;;;;;;;4.88;83.75;98153.94;4992873;28;20512;-66
2021/12/02 00:43:24;;;;;;;0.20;0.20;;;;;;;4.83;83.33;98154.34;4992848;28;20495;-66
2021/12/02 00:45:50;;;;;;;0.10;0.10;;;;;;;4.83;83.67;98158.91;5001328;28;20048;-67
2021/12/02 00:48:15;;;;;;;0.20;0.20;;;;;;;4.84;84.47;98174.50;5013054;28;20578;-67
2021/12/02 00:50:48;;;;;;;0.15;0.13;;;;;;;4.89;84.49;98171.50;4997326;28;20034;-66
2021/12/02 00:53:18;;;;;;;0.30;0.30;;;;;;;4.88;83.73;98177.94;5012163;28;20033;-65
2021/12/02 00:55:44;;;;;;;0.73;0.30;;;;;;;4.81;84.02;98175.28;4996318;28;20391;-66
2021/12/02 00:58:18;;;;;;;0.65;0.17;;;;;;;4.85;83.95;98186.72;5013114;28;20370;-65
2021/12/02 01:00:47;;;;;;;0.10;0.10;;;;;;;4.81;84.75;98193.16;4999167;28;20042;-66
2021/12/02 01:03:14;;;;;;;0.20;0.20;;;;;;;4.79;84.62;98188.22;4996697;28;20038;-65
2021/12/02 01:05:41;;;;;;;0.25;0.25;;;;;;;4.81;85.07;98201.94;5005202;28;20506;-64
2021/12/02 01:08:06;;;;;;;1.95;0.30;;;;;;;4.73;84.61;98204.94;5011894;28;20026;-65
2021/12/02 01:10:31;;;;;;;0.20;0.20;;;;;;;4.86;84.80;98214.13;5007053;28;20044;-64
2021/12/02 01:13:00;;;;;;;1.23;0.40;;;;;;;4.81;84.70;98225.16;5011757;28;20041;-65
2021/12/02 01:15:25;;;;;;;0.10;0.10;;;;;;;4.76;84.32;98223.63;5011773;28;20044;-65
2021/12/02 01:17:51;;;;;;;1.55;0.30;;;;;;;4.78;84.34;98226.66;5001026;28;20042;-65
2021/12/02 01:20:18;;;;;;;0.20;0.20;;;;;;;4.80;83.23;98243.03;4997964;28;20040;-65
2021/12/02 01:22:47;;;;;;;0.10;0.10;;;;;;;4.75;83.18;98246.06;4997575;28;20443;-67
2021/12/02 01:25:16;;;;;;;0.35;0.30;;;;;;;4.86;82.50;98249.53;4992679;28;20058;-66
2021/12/02 01:27:43;;;;;;;0.20;0.20;;;;;;;4.81;82.30;98265.91;5001792;28;20088;-66
2021/12/02 01:30:09;;;;;;;0.20;0.20;;;;;;;4.90;81.41;98257.53;5004050;28;20169;-66
2021/12/02 01:32:38;;;;;;;0.20;0.20;;;;;;;4.81;81.69;98265.91;5005633;28;20049;-65
2021/12/02 01:35:04;;;;;;;4.43;0.47;;;;;;;4.78;81.48;98268.56;5006750;28;20386;-65
2021/12/02 01:37:31;;;;;;;0.22;0.20;;;;;;;4.76;81.85;98286.84;5003643;28;20088;-67
2021/12/02 01:39:57;;;;;;;0.65;0.45;;;;;;;4.79;81.15;98276.19;5008086;28;20087;-65
2021/12/02 01:42:28;;;;;;;0.20;0.20;;;;;;;4.70;81.73;98281.09;5010128;28;20034;-65
2021/12/02 01:44:57;;;;;;;0.20;0.20;;;;;;;4.76;81.39;98279.59;5010621;28;20037;-66
2021/12/02 01:47:25;;;;;;;0.20;0.20;;;;;;;4.76;81.33;98286.84;5005989;28;20120;-65
2021/12/02 01:49:55;;;;;;;0.15;0.15;;;;;;;4.63;81.80;98281.03;5011950;28;20120;-66
2021/12/02 01:52:32;;;;;;;0.10;0.10;;;;;;;4.62;82.44;98303.53;5011114;28;20042;-65
2021/12/02 01:55:09;;;;;;;0.22;0.22;;;;;;;4.61;82.06;98301.22;5007333;28;20038;-65
2021/12/02 01:57:40;;;;;;;0.35;0.35;;;;;;;4.66;82.65;98306.97;5011784;28;20041;-66
2021/12/02 02:00:15;;;;;;;0.20;0.20;;;;;;;4.59;82.47;98328.22;4994005;28;20483;-66
2021/12/02 02:02:41;;;;;;;0.20;0.20;;;;;;;4.51;83.75;98316.00;5003090;28;20033;-66
2021/12/02 02:05:12;;;;;;;0.10;0.10;;;;;;;4.58;83.33;98332.81;5000737;28;20026;-66
2021/12/02 02:08:05;;;;;;;4.32;0.40;;;;;;;4.51;83.76;98334.66;5006752;28;20048;-66
2021/12/02 02:10:35;;;;;;;0.22;0.22;;;;;;;4.53;83.41;98335.03;4982824;28;20542;-66
2021/12/02 02:13:04;;;;;;;0.73;0.40;;;;;;;4.54;83.58;98348.00;5012843;28;20045;-67
2021/12/02 02:15:30;;;;;;;0.65;0.30;;;;;;;4.61;83.65;98352.59;5010946;28;20136;-65
2021/12/02 02:20:50;;;;;;;0.20;0.20;;;;;;;4.54;83.78;98368.56;4996206;28;20038;-65
2021/12/02 02:23:15;;;;;;;0.20;0.20;;;;;;;4.46;84.27;98372.31;5005479;28;20030;-65
2021/12/02 02:25:42;;;;;;;0.20;0.20;;;;;;;4.45;84.34;98371.53;5011573;28;20475;-66
2021/12/02 02:28:08;;;;;;;0.10;0.10;;;;;;;4.41;84.32;98381.41;4995015;28;20275;-66
2021/12/02 02:30:37;;;;;;;0.30;0.30;;;;;;;4.38;84.65;98378.72;5006148;28;20376;-67
2021/12/02 02:33:03;;;;;;;0.20;0.20;;;;;;;4.36;84.10;98392.41;5010438;28;20304;-65
2021/12/02 02:35:29;;;;;;;0.47;0.30;;;;;;;4.30;83.72;98385.13;5010789;28;20056;-67
2021/12/02 02:37:55;;;;;;;0.17;0.17;;;;;;;4.32;84.71;98396.16;5007343;28;20034;-67
2021/12/02 02:40:24;;;;;;;0.73;0.38;;;;;;;4.31;84.75;98394.66;4999854;28;20060;-66
2021/12/02 02:42:56;;;;;;;0.30;0.30;;;;;;;4.27;84.68;98399.19;5009778;28;20125;-67
2021/12/02 02:45:22;;;;;;;0.63;0.30;;;;;;;4.21;84.56;98404.09;5005290;28;20809;-67
2021/12/02 02:47:48;;;;;;;0.17;0.17;;;;;;;4.31;83.84;98405.31;5009253;28;20045;-67
2021/12/02 02:50:15;;;;;;;0.20;0.20;;;;;;;4.26;83.91;98421.59;5010956;28;20083;-67
2021/12/02 02:52:42;;;;;;;0.10;0.10;;;;;;;4.20;84.12;98420.44;5010581;28;20038;-66
2021/12/02 02:55:11;;;;;;;0.22;0.22;;;;;;;4.22;84.45;98418.19;4991894;28;20045;-69
2021/12/02 02:57:44;;;;;;;0.17;0.17;;;;;;;4.23;84.66;98423.13;5008316;28;20406;-66
2021/12/02 03:00:15;;;;;;;0.40;0.40;;;;;;;4.17;84.77;98429.16;5011007;28;20041;-67
2021/12/02 03:02:52;;;;;;;0.20;0.20;;;;;;;4.18;85.13;98434.09;5009426;28;20040;-66
2021/12/02 03:05:35;;;;;;;0.20;0.20;;;;;;;4.17;85.27;98440.56;5003885;28;20048;-67
2021/12/02 03:08:12;;;;;;;0.15;0.15;;;;;;;4.12;85.03;98438.22;5010161;28;20041;-67
2021/12/02 03:13:19;;;;;;;0.20;0.20;;;;;;;4.13;85.43;98444.31;5009230;28;20072;-66
2021/12/02 03:18:29;;;;;;;0.75;0.25;;;;;;;4.05;85.39;98448.81;5010481;28;20088;-65
2021/12/02 03:20:57;;;;;;;0.20;0.20;;;;;;;4.04;85.61;98452.63;5008854;28;20317;-66
2021/12/02 03:23:26;;;;;;;0.20;0.20;;;;;;;4.04;85.60;98457.19;4997613;28;20121;-66
2021/12/02 03:25:52;;;;;;;0.10;0.10;;;;;;;4.05;85.67;98469.34;4993116;28;20087;-66
2021/12/02 03:28:18;;;;;;;0.10;0.10;;;;;;;4.00;85.54;98469.69;5009211;28;20506;-66
2021/12/02 03:30:43;;;;;;;0.20;0.20;;;;;;;4.02;85.86;98470.09;5001285;28;20038;-67
2021/12/02 03:33:09;;;;;;;0.22;0.22;;;;;;;3.93;86.33;98461.63;4996346;28;20038;-68
2021/12/02 03:35:35;;;;;;;0.20;0.20;;;;;;;3.89;86.49;98480.22;5006647;28;20065;-67
2021/12/02 03:38:00;;;;;;;0.30;0.30;;;;;;;3.85;87.00;98468.00;5025582;28;20052;-65
2021/12/02 03:40:28;;;;;;;0.20;0.20;;;;;;;3.84;86.82;98466.47;5002901;28;20034;-68
2021/12/02 03:42:54;;;;;;;0.20;0.20;;;;;;;3.86;87.42;98482.84;5007146;28;20033;-67
2021/12/02 03:45:24;;;;;;;0.10;0.10;;;;;;;3.90;87.31;98479.09;5010405;28;20076;-67
2021/12/02 03:47:49;;;;;;;0.30;0.30;;;;;;;3.91;87.26;98482.53;4999581;28;20069;-68
2021/12/02 03:50:15;;;;;;;0.17;0.17;;;;;;;3.88;87.09;98491.22;5010051;28;20410;-67
2021/12/02 03:52:41;;;;;;;0.43;0.38;;;;;;;3.79;88.16;98504.06;5010541;28;20068;-65
2021/12/02 03:55:07;;;;;;;0.20;0.20;;;;;;;3.81;87.95;98501.81;5002362;28;20550;-66
2021/12/02 03:57:32;;;;;;;0.10;0.10;;;;;;;3.84;87.63;98501.06;4990486;28;20046;-66
2021/12/02 04:00:00;;;;;;;0.20;0.20;;;;;;;3.78;87.91;98507.84;4990853;28;20034;-67
2021/12/02 04:02:26;;;;;;;0.20;0.20;;;;;;;3.79;87.98;98501.41;4994618;28;20486;-67
2021/12/02 04:04:51;;;;;;;0.30;0.30;;;;;;;3.84;88.19;98504.50;5008609;28;20061;-67
2021/12/02 04:07:19;;;;;;;0.20;0.20;;;;;;;3.77;88.54;98501.75;5025376;28;20038;-66
2021/12/02 04:09:46;;;;;;;0.20;0.20;;;;;;;3.72;89.36;98515.38;4996037;28;20050;-67
2021/12/02 04:12:20;;;;;;;0.20;0.20;;;;;;;3.72;89.82;98510.06;5002391;28;20025;-66
2021/12/02 04:15:31;;;;;;;0.20;0.20;;;;;;;3.82;89.67;98520.06;5009247;28;20057;-66
2021/12/02 04:17:41;;;;;;;0.40;0.30;;;;;;;3.80;90.23;98526.88;5010462;28;20483;-67
2021/12/02 04:20:19;;;;;;;0.20;0.20;;;;;;;3.79;91.05;98536.00;4997377;28;20034;-67
2021/12/02 04:22:45;;;;;;;0.30;0.30;;;;;;;3.81;91.40;98533.75;4994251;28;20043;-66
2021/12/02 04:25:12;;;;;;;0.45;0.45;;;;;;;3.82;92.41;98537.91;5009172;28;20021;-67
2021/12/02 04:27:38;;;;;;;0.40;0.40;;;;;;;3.68;93.71;98554.47;5013532;28;20049;-65
2021/12/02 04:30:05;;;;;;;1.13;0.50;;;;;;;3.70;94.19;98554.13;5013319;28;20037;-65
2021/12/02 04:32:31;;;;;;;0.30;0.28;;;;;;;3.70;94.32;98552.22;4999647;28;20026;-67
2021/12/02 04:34:57;;;;;;;0.28;0.28;;;;;;;3.75;94.37;98556.47;5000634;28;20460;-66
2021/12/02 04:37:23;;;;;;;0.20;0.20;;;;;;;3.65;95.00;98555.97;4993075;28;20521;-67
2021/12/02 04:39:49;;;;;;;0.13;0.13;;;;;;;3.64;95.22;98565.06;4999595;28;20506;-66
2021/12/02 04:42:16;;;;;;;0.20;0.20;;;;;;;3.57;95.77;98583.63;5008788;28;20030;-67
2021/12/02 04:44:41;;;;;;;0.20;0.20;;;;;;;3.53;95.51;98574.81;4997107;28;20037;-67
2021/12/02 04:47:07;;;;;;;0.20;0.20;;;;;;;3.49;95.79;98579.31;4999336;28;20483;-67
2021/12/02 04:49:32;;;;;;;0.20;0.20;;;;;;;3.51;95.46;98574.41;5002244;28;20116;-66
2021/12/02 04:51:58;;;;;;;0.30;0.30;;;;;;;3.50;95.24;98580.09;5013090;28;20505;-67
2021/12/02 04:54:24;;;;;;;0.20;0.20;;;;;;;3.54;94.59;98583.56;5012399;28;20037;-66
2021/12/02 04:56:50;;;;;;;0.20;0.20;;;;;;;3.45;94.62;98591.03;5011997;28;20486;-66
2021/12/02 04:59:15;;;;;;;0.30;0.30;;;;;;;3.43;94.15;98595.94;4996905;28;20395;-66
2021/12/02 05:01:40;;;;;;;0.30;0.30;;;;;;;3.39;93.57;98603.84;5002653;28;20042;-66
2021/12/02 05:04:06;;;;;;;0.15;0.15;;;;;;;3.35;92.79;98599.59;5003668;28;20045;-66
2021/12/02 05:06:32;;;;;;;0.30;0.30;;;;;;;3.38;92.76;98597.03;4996972;28;20030;-66
2021/12/02 05:08:58;;;;;;;0.20;0.20;;;;;;;3.53;91.73;98603.31;4990394;28;20052;-66
2021/12/02 05:11:24;;;;;;;0.25;0.25;;;;;;;3.39;91.34;98609.19;4997510;28;20157;-66
2021/12/02 05:13:49;;;;;;;0.20;0.20;;;;;;;3.37;90.54;98610.66;5007626;28;20091;-66
2021/12/02 05:16:16;;;;;;;0.20;0.20;;;;;;;3.29;90.20;98604.47;5007391;28;20450;-66
2021/12/02 05:18:41;;;;;;;0.20;0.20;;;;;;;3.30;90.51;98619.31;4994571;28;20060;-65
2021/12/02 05:21:06;;;;;;;0.20;0.20;;;;;;;3.19;89.41;98626.34;4995718;28;20574;-66
2021/12/02 05:23:33;;;;;;;0.20;0.20;;;;;;;3.26;88.94;98623.81;4994084;28;20092;-66
2021/12/02 05:25:58;;;;;;;0.30;0.30;;;;;;;3.26;88.56;98631.00;4994796;28;20053;-66
2021/12/02 05:28:24;;;;;;;0.20;0.20;;;;;;;3.28;88.28;98634.84;5011988;28;20042;-66
2021/12/02 05:30:50;;;;;;;0.20;0.20;;;;;;;3.23;88.08;98632.47;5005500;28;20041;-66
2021/12/02 05:33:18;;;;;;;0.20;0.20;;;;;;;3.21;87.71;98640.06;4993443;28;20072;-66
2021/12/02 05:35:44;;;;;;;0.38;0.28;;;;;;;3.20;87.53;98640.41;4998578;28;20029;-66
2021/12/02 05:38:11;;;;;;;0.30;0.30;;;;;;;3.18;87.65;98646.06;5013562;28;20175;-66
2021/12/02 05:40:40;;;;;;;0.17;0.17;;;;;;;3.19;87.11;98641.53;5009020;28;20038;-66
2021/12/02 05:43:06;;;;;;;0.57;0.47;;;;;;;3.18;87.16;98647.97;5012122;28;20065;-66
2021/12/02 05:45:31;;;;;;;0.30;0.30;;;;;;;3.19;86.65;98657.50;5014721;28;20445;-66
2021/12/02 05:47:58;;;;;;;0.30;0.30;;;;;;;3.16;86.49;98664.28;5007293;28;20141;-66
2021/12/02 05:50:24;;;;;;;2.35;0.40;;;;;;;3.11;86.05;98655.84;5014380;28;20143;-66
2021/12/02 05:52:50;;;;;;;0.20;0.20;;;;;;;3.09;85.93;98663.38;5014285;28;20121;-66
2021/12/02 05:55:16;;;;;;;0.10;0.10;;;;;;;3.18;85.72;98671.88;5009006;28;20127;-66
2021/12/02 05:57:41;;;;;;;0.20;0.20;;;;;;;3.17;85.13;98667.72;5007903;28;20040;-66
2021/12/02 06:00:08;;;;;;;0.30;0.30;;;;;;;3.16;85.01;98672.25;4994132;28;20321;-66
2021/12/02 06:02:40;;;;;;;0.50;0.50;;;;;;;3.12;84.98;98682.06;5008461;28;20045;-65
2021/12/02 06:05:06;;;;;;;1.10;1.10;;;;;;;3.11;84.47;98685.84;5002157;28;20025;-66
2021/12/02 06:07:32;;;;;;;0.82;0.43;;;;;;;3.12;83.91;98683.94;5000810;28;20076;-66
2021/12/02 06:09:57;;;;;;;0.30;0.30;;;;;;;3.07;84.03;98692.22;4994132;28;20291;-65
2021/12/02 06:12:23;;;;;;;4.95;0.30;;;;;;;3.06;84.21;98702.06;5002250;28;20053;-66
2021/12/02 06:14:49;;;;;;;0.10;0.10;;;;;;;3.08;83.89;98701.75;4992680;28;20058;-65
2021/12/02 06:17:20;;;;;;;0.20;0.20;;;;;;;3.08;83.49;98710.47;4999718;28;20042;-66
2021/12/02 06:19:45;;;;;;;0.20;0.20;;;;;;;3.06;83.98;98715.38;5010773;28;20039;-66
2021/12/02 06:22:13;;;;;;;0.38;0.20;;;;;;;3.06;83.93;98719.94;4995423;28;20073;-66
2021/12/02 06:27:27;;;;;;;1.10;0.22;;;;;;;3.09;83.70;98735.94;4975712;28;20137;-66
2021/12/02 06:29:55;;;;;;;0.20;0.20;;;;;;;3.13;83.80;98742.09;5003586;28;20096;-65
2021/12/02 06:32:21;;;;;;;2.17;0.30;;;;;;;3.20;83.45;98752.84;5009317;28;20042;-66
2021/12/02 06:34:46;;;;;;;0.10;0.10;;;;;;;3.16;83.39;98753.91;5012117;28;20490;-66
2021/12/02 06:37:11;;;;;;;0.15;0.15;;;;;;;3.10;83.68;98764.06;4995497;28;20035;-66
2021/12/02 06:39:37;;;;;;;0.17;0.17;;;;;;;3.09;83.68;98762.53;4992338;28;20046;-66
2021/12/02 06:42:03;;;;;;;0.20;0.20;;;;;;;3.11;84.08;98764.84;4996212;28;20034;-65
2021/12/02 06:44:29;;;;;;;1.27;0.38;;;;;;;3.04;84.25;98765.47;5001578;28;20042;-65
2021/12/02 06:46:56;;;;;;;0.20;0.20;;;;;;;3.03;84.53;98777.22;5005990;28;20036;-65
2021/12/02 06:49:21;;;;;;;0.28;0.28;;;;;;;3.07;84.51;98778.06;4994895;28;21327;-66
2021/12/02 06:51:47;;;;;;;0.40;0.40;;;;;;;3.06;84.37;98792.47;4994860;28;20038;-66
2021/12/02 06:54:12;;;;;;;0.28;0.28;;;;;;;3.04;84.51;98781.41;4992410;28;20034;-66
2021/12/02 06:56:38;;;;;;;0.30;0.30;;;;;;;3.05;84.91;98792.81;4991380;28;20069;-66
2021/12/02 06:59:03;;;;;;;0.43;0.43;;;;;;;3.09;84.98;98789.13;4999827;28;20087;-66
2021/12/02 07:01:29;;;;;;;0.45;0.30;;;;;;;3.07;84.88;98794.00;4991922;28;20034;-66
2021/12/02 07:03:54;;;;;;;0.20;0.20;;;;;;;3.03;85.15;98801.16;4993543;28;20076;-66
2021/12/02 07:06:19;;;;;;;0.20;0.20;;;;;;;3.06;85.02;98805.75;4997063;28;20042;-66
2021/12/02 07:08:45;;;;;;;0.20;0.20;;;;;;;3.00;85.43;98807.16;4992296;28;20109;-65
2021/12/02 07:11:10;;;;;;;3.63;0.47;;;;;;;3.02;85.50;98810.22;4995998;28;20514;-66
2021/12/02 07:13:38;;;;;;;0.47;0.40;;;;;;;2.94;85.92;98811.22;5010186;28;20080;-64
2021/12/02 07:16:03;;;;;;;0.20;0.20;;;;;;;2.93;86.09;98820.31;4988616;28;20042;-63
2021/12/02 07:18:34;;;;;;;0.28;0.28;;;;;;;3.00;85.82;98828.41;4994228;28;20026;-64
2021/12/02 07:21:00;;;;;;;1.27;0.63;;;;;;;2.98;85.79;98828.00;4992881;28;20044;-64
2021/12/02 07:23:25;;;;;;;0.20;0.20;;;;;;;2.96;86.45;98837.44;4987186;28;20050;-64
2021/12/02 07:25:51;;;;;;;0.10;0.10;;;;;;;2.96;86.73;98846.16;4995306;28;20081;-64
2021/12/02 07:28:17;;;;;;;0.20;0.20;;;;;;;2.97;86.72;98850.38;4996877;28;20049;-64
2021/12/02 07:30:50;;;;;;;0.20;0.20;;;;;;;2.96;86.87;98850.75;4998554;28;20030;-64
2021/12/02 07:33:15;;;;;;;0.30;0.20;;;;;;;2.95;87.05;98849.97;4979499;28;20038;-64
2021/12/02 07:35:41;;;;;;;0.20;0.20;;;;;;;3.00;87.14;98862.22;5004776;28;20038;-64
2021/12/02 07:38:09;;;;;;;0.32;0.32;;;;;;;2.97;87.30;98861.00;5002967;28;20761;-64
2021/12/02 07:40:37;;;;;;;0.20;0.20;;;;;;;2.97;87.27;98868.22;5006518;28;20037;-64
2021/12/02 07:43:04;;;;;;;4.75;0.50;;;;;;;2.97;87.35;98876.19;5004284;28;20080;-64
2021/12/02 07:45:32;;;;;;;0.22;0.22;;;;;;;2.99;87.35;98879.25;5008457;28;20472;-64
2021/12/02 07:47:58;;;;;;;4.13;0.40;;;;;;;2.94;87.33;98879.56;4996224;28;20242;-66
2021/12/02 07:50:24;;;;;;;0.35;0.35;;;;;;;2.99;87.33;98880.03;5011737;23;20034;-69
2021/12/02 07:52:58;;;;;;;0.30;0.30;;;;;;;2.98;87.59;98886.47;4985722;28;20054;-68
2021/12/02 07:55:24;;;;;;;0.30;0.30;;;;;;;2.97;87.58;98887.59;4988766;28;20121;-67
2021/12/02 07:57:54;;;;;;;0.40;0.40;;;;;;;2.98;87.58;98897.09;4989855;28;20046;-67
2021/12/02 08:00:26;;;;;;;0.20;0.20;;;;;;;2.92;87.37;98895.06;4989761;28;20076;-67
2021/12/02 08:03:15;;;;;;;3.83;0.55;;;;;;;2.92;87.67;98917.13;4987903;28;20030;-67
2021/12/02 08:05:41;;;;;;;0.20;0.20;;;;;;;2.88;87.83;98907.50;4903940;29;20501;-67
2021/12/02 08:08:07;;;;;;;0.15;0.15;;;;;;;2.91;87.62;98915.56;4896106;29;20507;-67
2021/12/02 08:10:32;;;;;;;0.10;0.10;;;;;;;2.90;87.89;98914.03;4902735;29;20064;-68
2021/12/02 08:13:00;;;;;;;0.32;0.30;;;;;;;2.95;87.55;98926.25;4912709;29;20067;-67
2021/12/02 08:15:28;;;;;;;0.28;0.20;;;;;;;2.95;87.44;98929.69;4912561;29;20044;-67
2021/12/02 08:17:55;;;;;;;11.45;0.47;;;;;;;2.97;87.45;98932.00;4912654;29;20059;-68
2021/12/02 08:20:23;;;;;;;0.82;0.25;;;;;;;2.98;87.29;98946.84;4897455;29;20506;-67
2021/12/02 08:22:48;;;;;;;0.20;0.20;;;;;;;2.98;87.22;98954.81;4894780;29;20066;-68
2021/12/02 08:25:15;;;;;;;0.30;0.30;;;;;;;3.07;87.32;98948.19;4907849;29;20044;-67
2021/12/02 08:27:41;;;;;;;0.30;0.30;;;;;;;3.08;87.23;98960.38;4907298;29;20044;-69
2021/12/02 08:30:09;;;;;;;0.25;0.25;;;;;;;3.06;87.22;98959.94;4910000;29;20124;-67
2021/12/02 08:32:41;;;;;;;0.50;0.50;;;;;;;3.07;87.14;98958.84;4907290;29;20036;-68
2021/12/02 08:35:07;;;;;;;2.65;0.63;;;;;;;3.13;87.29;98968.09;4898662;29;20075;-67
2021/12/02 08:37:36;;;;;;;0.55;0.30;;;;;;;3.20;86.85;98973.56;4897189;29;20541;-67
2021/12/02 08:40:03;;;;;;;1.35;0.73;;;;;;;3.27;86.55;98978.25;4909333;29;20071;-66
2021/12/02 08:42:31;;;;;;;0.20;0.20;;;;;;;3.33;86.14;98977.63;4942236;28;20065;-67
2021/12/02 08:44:57;;;;;;;4.50;0.40;;;;;;;3.39;85.80;98986.88;4972512;28;20419;-67
2021/12/02 08:47:23;;;;;;;0.32;0.25;;;;;;;3.49;85.09;98982.91;4973138;28;20042;-66
2021/12/02 08:49:54;;;;;;;0.35;0.35;;;;;;;3.52;84.39;98985.63;4979710;28;20073;-67
2021/12/02 08:52:22;;;;;;;0.30;0.30;;;;;;;3.62;84.05;99001.03;4986555;28;20030;-67
2021/12/02 08:54:49;;;;;;;0.10;0.10;;;;;;;3.70;83.91;98999.28;4987004;28;20071;-67
2021/12/02 08:57:16;;;;;;;0.43;0.43;;;;;;;3.85;82.92;98989.72;4982722;28;20022;-67
2021/12/02 08:59:43;;;;;;;0.20;0.15;;;;;;;3.99;82.10;99001.38;4980880;28;20108;-67
2021/12/02 09:02:09;;;;;;;0.60;0.60;;;;;;;4.10;81.58;99017.59;4984669;28;20070;-67
2021/12/02 09:04:34;;;;;;;0.35;0.30;;;;;;;4.15;80.87;99023.38;4981570;28;20073;-67
2021/12/02 09:07:00;;;;;;;1.00;0.50;;;;;;;4.25;80.69;99027.38;4978899;28;20149;-67
2021/12/02 09:09:26;;;;;;;2.05;0.30;;;;;;;4.29;80.14;99028.22;4972669;28;20046;-67
2021/12/02 09:11:55;;;;;;;0.38;0.38;;;;;;;4.31;79.78;99034.75;4976719;28;20038;-66
2021/12/02 09:14:20;;;;;;;0.30;0.30;;;;;;;4.33;78.97;99029.84;4981420;28;20034;-67
2021/12/02 09:16:47;;;;;;;0.30;0.20;;;;;;;4.39;79.49;99041.72;4978728;28;20447;-68
2021/12/02 09:19:12;;;;;;;1.05;0.50;;;;;;;4.40;79.63;99040.59;4986647;28;20046;-68
2021/12/02 09:21:37;;;;;;;2.08;0.68;;;;;;;4.38;79.42;99042.84;4985417;28;20104;-67
2021/12/02 09:24:03;;;;;;;0.38;0.38;;;;;;;4.50;78.94;99045.34;4983016;28;20034;-67
2021/12/02 09:26:29;;;;;;;0.20;0.20;;;;;;;4.54;79.02;99046.19;4990061;28;20046;-67
2021/12/02 09:28:57;;;;;;;1.42;0.50;;;;;;;4.54;78.05;99051.53;4984288;28;20030;-67
2021/12/02 09:31:26;;;;;;;0.45;0.38;;;;;;;4.61;77.43;99056.19;4981094;28;20121;-68
2021/12/02 09:33:52;;;;;;;0.32;0.32;;;;;;;4.59;77.55;99059.22;4981274;28;20031;-67
2021/12/02 09:36:18;;;;;;;0.10;0.10;;;;;;;4.61;77.77;99064.19;4981909;28;20025;-67
2021/12/02 09:38:45;;;;;;;0.38;0.38;;;;;;;4.67;77.52;99067.31;4979275;28;20474;-67
2021/12/02 09:41:11;;;;;;;0.40;0.40;;;;;;;4.73;76.78;99060.59;4989225;28;20640;-67
2021/12/02 09:43:37;;;;;;;0.35;0.35;;;;;;;4.76;76.67;99073.22;4977806;28;20050;-67
2021/12/02 09:46:02;;;;;;;0.45;0.30;;;;;;;4.74;77.05;99081.59;4986057;28;20429;-67
2021/12/02 09:48:29;;;;;;;1.33;0.30;;;;;;;4.76;76.55;99084.66;4983578;28;20038;-67
2021/12/02 09:51:06;;;;;;;2.20;0.80;;;;;;;4.80;76.19;99080.13;4987586;28;20041;-67
2021/12/02 09:53:50;;;;;;;0.30;0.30;;;;;;;4.84;75.23;99091.63;4979628;28;20081;-67
2021/12/02 09:56:22;;;;;;;0.43;0.40;;;;;;;4.89;75.66;99085.25;4978649;28;20062;-68
2021/12/02 09:58:50;;;;;;;;;;;;;;;4.85;76.08;99082.53;4984843;28;20819;-67
2021/12/02 10:01:19;;;;;;;0.25;0.25;;;;;;;4.90;76.15;99089.44;4985220;28;20441;-68
2021/12/02 10:03:46;;;;;;;0.20;0.20;;;;;;;4.98;75.87;99096.44;4977418;28;20042;-67
2021/12/02 10:06:19;;;;;;;0.30;0.30;;;;;;;5.00;75.16;99096.84;4982310;28;20069;-67
2021/12/02 10:09:08;;;;;;;0.50;0.50;;;;;;;5.03;74.63;99088.16;4986631;28;20553;-67
2021/12/02 10:11:38;;;;;;;1.98;0.45;;;;;;;4.94;73.90;99093.72;4982800;28;20112;-66
2021/12/02 10:14:15;;;;;;;0.35;0.35;;;;;;;4.93;74.39;99089.53;4980927;28;20041;-67
2021/12/02 10:16:44;;;;;;;0.45;0.43;;;;;;;5.01;73.76;99095.75;4980282;28;20038;-66
2021/12/02 10:19:29;;;;;;;0.57;0.35;;;;;;;5.01;73.59;99098.41;4979781;28;20034;-67
2021/12/02 10:22:00;;;;;;;2.65;0.40;;;;;;;5.05;73.61;99108.00;4978760;28;20038;-67
2021/12/02 10:24:28;;;;;;;0.30;0.30;;;;;;;4.97;72.79;99111.69;4977464;28;20038;-67
2021/12/02 10:26:58;;;;;;;0.75;0.55;;;;;;;4.98;72.13;99107.88;4974525;28;20539;-67
2021/12/02 10:29:28;;;;;;;0.50;0.45;;;;;;;4.97;72.11;99114.34;4978088;28;20112;-66
2021/12/02 10:32:28;;;;;;;0.30;0.30;;;;;;;4.95;72.83;99108.59;4983641;28;20038;-67
2021/12/02 10:35:09;;;;;;;0.75;0.40;;;;;;;4.91;72.53;99115.78;4975824;28;20053;-66
2021/12/02 10:37:39;;;;;;;0.30;0.30;;;;;;;4.98;73.06;99126.56;4979098;28;20113;-69
2021/12/02 10:40:10;;;;;;;0.40;0.40;;;;;;;5.06;72.76;99116.78;4975638;28;20177;-67
2021/12/02 10:42:38;;;;;;;0.60;0.60;;;;;;;5.04;72.53;99130.47;4980006;28;20042;-66
2021/12/02 10:45:07;;;;;;;0.30;0.30;;;;;;;4.97;72.03;99125.03;4979880;28;20053;-67
2021/12/02 10:47:33;;;;;;;0.63;0.63;;;;;;;4.97;72.46;99134.91;4979301;28;20041;-68
2021/12/02 10:50:06;;;;;;;0.30;0.30;;;;;;;4.93;71.81;99134.88;4986444;28;20041;-67
2021/12/02 10:52:34;;;;;;;0.60;0.60;;;;;;;4.93;71.82;99132.19;4981911;28;20162;-67
2021/12/02 10:55:07;;;;;;;0.57;0.30;;;;;;;4.87;72.45;99141.59;4984266;28;20041;-68
2021/12/02 10:57:38;;;;;;;4.13;0.40;;;;;;;4.94;72.28;99140.94;4980433;28;20030;-67
2021/12/02 11:00:11;;;;;;;0.30;0.30;;;;;;;4.90;73.38;99148.88;4982930;28;20034;-67
2021/12/02 11:02:40;;;;;;;0.40;0.30;;;;;;;4.95;72.96;99148.63;4989105;28;20372;-67
2021/12/02 11:05:18;;;;;;;0.25;0.25;;;;;;;5.00;73.88;99164.31;4981885;28;20140;-66
2021/12/02 11:07:54;;;;;;;0.30;0.30;;;;;;;5.02;73.51;99163.94;4982324;28;20042;-68
2021/12/02 11:10:20;;;;;;;0.28;0.28;;;;;;;5.00;72.79;99164.31;4977530;28;20287;-67
2021/12/02 11:12:48;;;;;;;0.20;0.20;;;;;;;5.06;72.18;99172.78;4985876;28;20048;-68
2021/12/02 11:15:20;;;;;;;0.25;0.25;;;;;;;5.09;72.04;99174.75;4973827;28;20047;-66
2021/12/02 11:17:47;;;;;;;2.20;0.38;;;;;;;5.12;71.10;99177.50;4978866;28;20029;-65
2021/12/02 11:20:29;;;;;;;0.30;0.30;;;;;;;5.16;70.63;99181.00;4979585;28;20041;-65
2021/12/02 11:23:13;;;;;;;1.70;0.50;;;;;;;5.12;71.03;99185.50;4983654;28;20038;-67
2021/12/02 11:26:07;;;;;;;0.50;0.50;;;;;;;5.10;71.15;99185.06;4984038;28;20035;-64
2021/12/02 11:28:35;;;;;;;1.42;0.50;;;;;;;5.18;70.85;99186.75;4978665;28;20133;-65
2021/12/02 11:31:13;;;;;;;2.42;0.40;;;;;;;5.21;70.98;99188.69;4990610;28;20043;-65
2021/12/02 11:33:39;;;;;;;0.30;0.30;;;;;;;5.21;69.77;99195.91;4983931;28;20133;-65
2021/12/02 11:36:15;;;;;;;0.68;0.47;;;;;;;5.16;69.63;99186.31;4986410;28;20482;-65
2021/12/02 11:38:41;;;;;;;0.77;0.50;;;;;;;5.16;69.46;99194.34;4975334;28;20046;-65
2021/12/02 11:41:09;;;;;;;0.40;0.40;;;;;;;5.19;68.62;99203.50;4984671;28;20038;-65
2021/12/02 11:43:38;;;;;;;0.20;0.20;;;;;;;5.21;68.97;99207.38;4982497;28;20118;-64
2021/12/02 11:46:06;;;;;;;0.57;0.35;;;;;;;5.18;68.01;99201.97;4984654;28;20038;-66
2021/12/02 11:48:34;;;;;;;0.43;0.40;;;;;;;5.18;68.67;99208.09;4979526;28;20043;-66
2021/12/02 11:51:02;;;;;;;0.30;0.25;;;;;;;5.16;69.18;99209.56;4985347;28;20065;-65
2021/12/02 11:53:28;;;;;;;0.57;0.52;;;;;;;5.12;68.68;99214.84;4977051;28;20037;-65
2021/12/02 11:56:04;;;;;;;0.30;0.30;;;;;;;5.10;69.24;99214.41;4988092;28;20048;-66
2021/12/02 11:58:30;;;;;;;0.52;0.30;;;;;;;5.10;68.87;99219.75;4986302;28;20030;-65
2021/12/02 12:00:56;;;;;;;0.28;0.28;;;;;;;5.07;69.69;99233.03;4984699;28;20030;-65